sensor_id;sensor_type;location;lat;lon;timestamp;temperature;humidity
4922;DHT22;16625;53.624;10.106;2023-06-22T00:02:04;16.80;99.90
4922;DHT22;16625;53.624;10.106;2023-06-22T00:04:31;16.70;1.00
4922;DHT22;16625;53.624;10.106;2023-06-22T00:06:58;16.70;99.90
4922;DHT22;16625;53.624;10.106;2023-06-22T00:09:26;16.80;99.90
4922;DHT22;16625;53.624;10.106;2023-06-22T00:11:53;16.70;99.90
4922;DHT22;16625;53.624;10.106;2023-06-22T00:14:20;16.60;1.00
4922;DHT22;16625;53.624;10.106;2023-06-22T00:16:47;16.60;1.00
4922;DHT22;16625;53.624;10.106;2023-06-22T00:19:14;16.80;67.20
4922;DHT22;16625;53.624;10.106;2023-06-22T00:21:41;16.70;28.80
4922;DHT22;16625;53.624;10.106;2023-06-22T00:24:12;16.60;99.90
4922;DHT22;16625;53.624;10.106;2023-06-22T00:26:40;16.60;99.90
4922;DHT22;16625;53.624;10.106;2023-06-22T00:29:07;16.60;99.90
4922;DHT22;16625;53.624;10.106;2023-06-22T00:31:34;16.50;99.90
4922;DHT22;16625;53.624;10.106;2023-06-22T00:34:01;16.60;99.90
4922;DHT22;16625;53.624;10.106;2023-06-22T00:36:28;16.60;99.90
4922;DHT22;16625;53.624;10.106;2023-06-22T00:38:55;16.60;99.90
4922;DHT22;16625;53.624;10.106;2023-06-22T00:41:23;16.50;99.90
4922;DHT22;16625;53.624;10.106;2023-06-22T00:43:51;16.60;99.90
4922;DHT22;16625;53.624;10.106;2023-06-22T00:46:18;16.50;99.90
4922;DHT22;16625;53.624;10.106;2023-06-22T00:48:45;16.50;99.90
4922;DHT22;16625;53.624;10.106;2023-06-22T00:51:12;16.50;99.90
4922;DHT22;16625;53.624;10.106;2023-06-22T00:53:39;16.60;1.00
4922;DHT22;16625;53.624;10.106;2023-06-22T00:56:07;16.70;1.00
4922;DHT22;16625;53.624;10.106;2023-06-22T00:58:35;16.70;1.00
4922;DHT22;16625;53.624;10.106;2023-06-22T01:01:03;16.60;1.00
4922;DHT22;16625;53.624;10.106;2023-06-22T01:03:30;16.70;1.00
4922;DHT22;16625;53.624;10.106;2023-06-22T01:06:05;16.60;1.00
4922;DHT22;16625;53.624;10.106;2023-06-22T01:08:39;16.60;1.00
4922;DHT22;16625;53.624;10.106;2023-06-22T01:11:10;16.70;1.00
4922;DHT22;16625;53.624;10.106;2023-06-22T01:13:44;16.80;1.00
4922;DHT22;16625;53.624;10.106;2023-06-22T01:16:16;16.70;99.90
4922;DHT22;16625;53.624;10.106;2023-06-22T01:18:45;16.70;99.90
4922;DHT22;16625;53.624;10.106;2023-06-22T01:21:16;16.60;1.00
4922;DHT22;16625;53.624;10.106;2023-06-22T01:24:10;16.60;1.00
4922;DHT22;16625;53.624;10.106;2023-06-22T01:26:46;16.40;1.00
4922;DHT22;16625;53.624;10.106;2023-06-22T01:29:21;16.60;1.00
4922;DHT22;16625;53.624;10.106;2023-06-22T01:31:50;16.50;1.00
4922;DHT22;16625;53.624;10.106;2023-06-22T01:34:18;16.50;1.00
4922;DHT22;16625;53.624;10.106;2023-06-22T01:36:46;16.50;1.00
4922;DHT22;16625;53.624;10.106;2023-06-22T01:39:13;16.60;1.00
4922;DHT22;16625;53.624;10.106;2023-06-22T01:41:41;16.50;1.00
4922;DHT22;16625;53.624;10.106;2023-06-22T01:44:09;16.50;1.00
4922;DHT22;16625;53.624;10.106;2023-06-22T01:46:39;16.50;1.00
4922;DHT22;16625;53.624;10.106;2023-06-22T01:49:07;16.50;1.00
4922;DHT22;16625;53.624;10.106;2023-06-22T01:51:35;16.40;1.00
4922;DHT22;16625;53.624;10.106;2023-06-22T01:54:02;16.40;1.00
4922;DHT22;16625;53.624;10.106;2023-06-22T01:56:29;16.30;34.10
4922;DHT22;16625;53.624;10.106;2023-06-22T01:59:01;16.30;73.40
4922;DHT22;16625;53.624;10.106;2023-06-22T02:01:33;16.30;99.90
4922;DHT22;16625;53.624;10.106;2023-06-22T02:04:06;16.40;99.90
4922;DHT22;16625;53.624;10.106;2023-06-22T02:06:37;16.30;99.90
4922;DHT22;16625;53.624;10.106;2023-06-22T02:09:08;16.20;99.90
4922;DHT22;16625;53.624;10.106;2023-06-22T02:11:37;16.20;99.90
4922;DHT22;16625;53.624;10.106;2023-06-22T02:14:05;16.10;99.90
4922;DHT22;16625;53.624;10.106;2023-06-22T02:16:33;16.10;99.90
4922;DHT22;16625;53.624;10.106;2023-06-22T02:19:02;16.10;99.90
4922;DHT22;16625;53.624;10.106;2023-06-22T02:21:31;16.30;99.90
4922;DHT22;16625;53.624;10.106;2023-06-22T02:23:58;16.10;99.90
4922;DHT22;16625;53.624;10.106;2023-06-22T02:26:25;16.00;99.90
4922;DHT22;16625;53.624;10.106;2023-06-22T02:28:53;16.00;99.90
4922;DHT22;16625;53.624;10.106;2023-06-22T02:31:19;16.00;99.90
4922;DHT22;16625;53.624;10.106;2023-06-22T02:33:46;16.10;99.90
4922;DHT22;16625;53.624;10.106;2023-06-22T02:36:14;15.90;99.90
4922;DHT22;16625;53.624;10.106;2023-06-22T02:38:43;15.90;99.90
4922;DHT22;16625;53.624;10.106;2023-06-22T02:41:14;16.00;99.90
4922;DHT22;16625;53.624;10.106;2023-06-22T02:43:44;16.00;99.90
4922;DHT22;16625;53.624;10.106;2023-06-22T02:46:11;16.10;99.90
4922;DHT22;16625;53.624;10.106;2023-06-22T02:48:38;16.10;99.90
4922;DHT22;16625;53.624;10.106;2023-06-22T02:51:05;15.90;99.90
4922;DHT22;16625;53.624;10.106;2023-06-22T02:53:32;15.90;99.90
4922;DHT22;16625;53.624;10.106;2023-06-22T02:56:01;15.80;99.90
4922;DHT22;16625;53.624;10.106;2023-06-22T02:58:30;15.80;99.90
4922;DHT22;16625;53.624;10.106;2023-06-22T03:01:04;15.80;99.90
4922;DHT22;16625;53.624;10.106;2023-06-22T03:03:31;15.80;99.90
4922;DHT22;16625;53.624;10.106;2023-06-22T03:05:58;15.70;99.90
4922;DHT22;16625;53.624;10.106;2023-06-22T03:08:26;15.70;99.90
4922;DHT22;16625;53.624;10.106;2023-06-22T03:10:54;15.70;99.90
4922;DHT22;16625;53.624;10.106;2023-06-22T03:13:22;15.80;99.90
4922;DHT22;16625;53.624;10.106;2023-06-22T03:15:49;15.70;99.90
4922;DHT22;16625;53.624;10.106;2023-06-22T03:18:16;15.70;99.90
4922;DHT22;16625;53.624;10.106;2023-06-22T03:20:43;15.70;99.90
4922;DHT22;16625;53.624;10.106;2023-06-22T03:23:10;15.70;99.90
4922;DHT22;16625;53.624;10.106;2023-06-22T03:25:37;15.70;99.90
4922;DHT22;16625;53.624;10.106;2023-06-22T03:28:04;15.70;99.90
4922;DHT22;16625;53.624;10.106;2023-06-22T03:30:32;15.60;99.90
4922;DHT22;16625;53.624;10.106;2023-06-22T03:32:59;15.70;99.90
4922;DHT22;16625;53.624;10.106;2023-06-22T03:35:26;15.60;99.90
4922;DHT22;16625;53.624;10.106;2023-06-22T03:37:53;15.70;99.90
4922;DHT22;16625;53.624;10.106;2023-06-22T03:40:20;15.70;99.90
4922;DHT22;16625;53.624;10.106;2023-06-22T03:42:47;15.70;99.90
4922;DHT22;16625;53.624;10.106;2023-06-22T03:45:14;15.70;99.90
4922;DHT22;16625;53.624;10.106;2023-06-22T03:47:42;15.70;99.90
4922;DHT22;16625;53.624;10.106;2023-06-22T03:50:10;15.80;99.90
4922;DHT22;16625;53.624;10.106;2023-06-22T03:52:36;15.80;99.90
4922;DHT22;16625;53.624;10.106;2023-06-22T03:55:04;15.90;99.90
4922;DHT22;16625;53.624;10.106;2023-06-22T03:57:31;16.00;99.90
4922;DHT22;16625;53.624;10.106;2023-06-22T03:59:58;16.30;99.90
4922;DHT22;16625;53.624;10.106;2023-06-22T04:02:25;16.30;99.90
4922;DHT22;16625;53.624;10.106;2023-06-22T04:04:54;16.50;99.90
4922;DHT22;16625;53.624;10.106;2023-06-22T04:07:21;16.60;99.90
4922;DHT22;16625;53.624;10.106;2023-06-22T04:09:47;16.70;99.90
4922;DHT22;16625;53.624;10.106;2023-06-22T04:12:14;16.70;99.90
4922;DHT22;16625;53.624;10.106;2023-06-22T04:14:41;16.80;94.10
4922;DHT22;16625;53.624;10.106;2023-06-22T04:17:08;16.80;24.30
4922;DHT22;16625;53.624;10.106;2023-06-22T04:19:35;16.80;1.00
4922;DHT22;16625;53.624;10.106;2023-06-22T04:22:04;17.00;99.90
4922;DHT22;16625;53.624;10.106;2023-06-22T04:24:32;17.10;99.90
4922;DHT22;16625;53.624;10.106;2023-06-22T04:26:59;17.30;1.00
4922;DHT22;16625;53.624;10.106;2023-06-22T04:29:31;17.20;99.90
4922;DHT22;16625;53.624;10.106;2023-06-22T04:39:12;17.50;1.00
4922;DHT22;16625;53.624;10.106;2023-06-22T04:41:40;17.60;99.90
4922;DHT22;16625;53.624;10.106;2023-06-22T04:44:10;17.60;99.90
4922;DHT22;16625;53.624;10.106;2023-06-22T04:46:38;17.80;1.00
4922;DHT22;16625;53.624;10.106;2023-06-22T04:49:06;17.80;1.00
4922;DHT22;16625;53.624;10.106;2023-06-22T04:51:40;17.90;99.90
4922;DHT22;16625;53.624;10.106;2023-06-22T04:54:08;18.10;1.00
4922;DHT22;16625;53.624;10.106;2023-06-22T04:56:36;18.10;1.00
4922;DHT22;16625;53.624;10.106;2023-06-22T04:59:06;18.30;99.90
4922;DHT22;16625;53.624;10.106;2023-06-22T05:01:34;18.40;69.70
4922;DHT22;16625;53.624;10.106;2023-06-22T05:04:01;18.30;99.90
4922;DHT22;16625;53.624;10.106;2023-06-22T05:06:30;18.40;1.00
4922;DHT22;16625;53.624;10.106;2023-06-22T05:08:57;18.40;99.90
4922;DHT22;16625;53.624;10.106;2023-06-22T05:11:25;18.60;14.40
4922;DHT22;16625;53.624;10.106;2023-06-22T05:13:54;18.80;99.90
4922;DHT22;16625;53.624;10.106;2023-06-22T05:16:21;18.80;99.90
4922;DHT22;16625;53.624;10.106;2023-06-22T05:18:53;19.00;1.00
4922;DHT22;16625;53.624;10.106;2023-06-22T05:21:22;19.20;99.90
4922;DHT22;16625;53.624;10.106;2023-06-22T05:23:50;19.20;1.00
4922;DHT22;16625;53.624;10.106;2023-06-22T05:26:17;19.30;1.00
4922;DHT22;16625;53.624;10.106;2023-06-22T05:28:44;19.40;1.00
4922;DHT22;16625;53.624;10.106;2023-06-22T05:31:14;19.50;1.00
4922;DHT22;16625;53.624;10.106;2023-06-22T05:33:43;19.70;1.00
4922;DHT22;16625;53.624;10.106;2023-06-22T05:36:10;19.70;99.90
4922;DHT22;16625;53.624;10.106;2023-06-22T05:38:38;19.80;99.90
4922;DHT22;16625;53.624;10.106;2023-06-22T05:41:05;20.00;99.90
4922;DHT22;16625;53.624;10.106;2023-06-22T05:43:32;19.90;99.90
4922;DHT22;16625;53.624;10.106;2023-06-22T05:46:00;20.00;1.00
4922;DHT22;16625;53.624;10.106;2023-06-22T05:48:28;19.90;1.00
4922;DHT22;16625;53.624;10.106;2023-06-22T05:50:55;19.90;99.90
4922;DHT22;16625;53.624;10.106;2023-06-22T05:53:22;20.00;99.90
4922;DHT22;16625;53.624;10.106;2023-06-22T05:55:49;20.10;99.90
4922;DHT22;16625;53.624;10.106;2023-06-22T05:58:15;20.20;1.00
4922;DHT22;16625;53.624;10.106;2023-06-22T06:00:43;20.30;1.00
4922;DHT22;16625;53.624;10.106;2023-06-22T06:03:10;20.40;1.00
4922;DHT22;16625;53.624;10.106;2023-06-22T06:05:38;20.40;1.00
4922;DHT22;16625;53.624;10.106;2023-06-22T06:08:06;20.50;1.00
4922;DHT22;16625;53.624;10.106;2023-06-22T06:10:33;20.70;99.90
4922;DHT22;16625;53.624;10.106;2023-06-22T06:13:01;20.70;61.40
4922;DHT22;16625;53.624;10.106;2023-06-22T06:15:30;20.80;13.10
4922;DHT22;16625;53.624;10.106;2023-06-22T06:17:56;21.00;1.00
4922;DHT22;16625;53.624;10.106;2023-06-22T06:20:25;21.10;1.00
4922;DHT22;16625;53.624;10.106;2023-06-22T06:22:55;21.10;1.00
4922;DHT22;16625;53.624;10.106;2023-06-22T06:25:22;21.30;1.00
4922;DHT22;16625;53.624;10.106;2023-06-22T06:27:51;21.30;99.90
4922;DHT22;16625;53.624;10.106;2023-06-22T06:30:20;21.50;99.90
4922;DHT22;16625;53.624;10.106;2023-06-22T06:32:47;21.60;99.90
4922;DHT22;16625;53.624;10.106;2023-06-22T06:35:15;21.60;99.90
4922;DHT22;16625;53.624;10.106;2023-06-22T06:37:43;21.80;99.90
4922;DHT22;16625;53.624;10.106;2023-06-22T06:40:13;21.90;99.90
4922;DHT22;16625;53.624;10.106;2023-06-22T06:42:42;21.80;99.90
4922;DHT22;16625;53.624;10.106;2023-06-22T06:45:10;21.70;99.90
4922;DHT22;16625;53.624;10.106;2023-06-22T06:47:37;21.70;80.00
4922;DHT22;16625;53.624;10.106;2023-06-22T06:50:06;21.60;99.90
4922;DHT22;16625;53.624;10.106;2023-06-22T06:52:33;21.70;99.90
4922;DHT22;16625;53.624;10.106;2023-06-22T06:55:00;21.70;99.90
4922;DHT22;16625;53.624;10.106;2023-06-22T06:57:29;21.70;99.90
4922;DHT22;16625;53.624;10.106;2023-06-22T06:59:56;21.70;99.90
4922;DHT22;16625;53.624;10.106;2023-06-22T07:02:23;21.70;99.90
4922;DHT22;16625;53.624;10.106;2023-06-22T07:04:50;21.60;99.90
4922;DHT22;16625;53.624;10.106;2023-06-22T07:07:17;21.60;99.90
4922;DHT22;16625;53.624;10.106;2023-06-22T07:09:44;21.60;99.90
4922;DHT22;16625;53.624;10.106;2023-06-22T07:12:11;21.80;99.90
4922;DHT22;16625;53.624;10.106;2023-06-22T07:14:39;21.90;99.90
4922;DHT22;16625;53.624;10.106;2023-06-22T07:17:06;22.10;99.90
4922;DHT22;16625;53.624;10.106;2023-06-22T07:19:33;22.30;99.90
4922;DHT22;16625;53.624;10.106;2023-06-22T07:22:00;22.40;99.90
4922;DHT22;16625;53.624;10.106;2023-06-22T07:24:27;22.70;99.90
4922;DHT22;16625;53.624;10.106;2023-06-22T07:26:54;23.10;45.30
4922;DHT22;16625;53.624;10.106;2023-06-22T07:29:23;23.30;1.00
4922;DHT22;16625;53.624;10.106;2023-06-22T07:31:51;23.60;1.00
4922;DHT22;16625;53.624;10.106;2023-06-22T07:34:18;23.70;1.00
4922;DHT22;16625;53.624;10.106;2023-06-22T07:36:45;23.80;1.00
4922;DHT22;16625;53.624;10.106;2023-06-22T07:39:12;23.90;1.00
4922;DHT22;16625;53.624;10.106;2023-06-22T07:41:40;24.00;1.00
4922;DHT22;16625;53.624;10.106;2023-06-22T07:44:07;23.90;1.00
4922;DHT22;16625;53.624;10.106;2023-06-22T07:46:34;23.80;1.00
4922;DHT22;16625;53.624;10.106;2023-06-22T07:49:02;24.00;1.00
4922;DHT22;16625;53.624;10.106;2023-06-22T07:51:29;24.10;1.00
4922;DHT22;16625;53.624;10.106;2023-06-22T07:53:56;24.10;1.00
4922;DHT22;16625;53.624;10.106;2023-06-22T07:56:23;24.00;1.00
4922;DHT22;16625;53.624;10.106;2023-06-22T07:58:52;24.10;1.00
4922;DHT22;16625;53.624;10.106;2023-06-22T08:01:19;24.20;1.00
4922;DHT22;16625;53.624;10.106;2023-06-22T08:03:47;24.40;1.00
4922;DHT22;16625;53.624;10.106;2023-06-22T08:06:15;24.50;1.00
4922;DHT22;16625;53.624;10.106;2023-06-22T08:08:42;24.80;1.00
4922;DHT22;16625;53.624;10.106;2023-06-22T08:11:13;24.60;1.00
4922;DHT22;16625;53.624;10.106;2023-06-22T08:13:40;24.80;1.00
4922;DHT22;16625;53.624;10.106;2023-06-22T08:16:07;24.90;1.00
4922;DHT22;16625;53.624;10.106;2023-06-22T08:18:34;24.80;1.00
4922;DHT22;16625;53.624;10.106;2023-06-22T08:21:00;24.80;1.00
4922;DHT22;16625;53.624;10.106;2023-06-22T08:23:29;25.00;1.00
4922;DHT22;16625;53.624;10.106;2023-06-22T08:25:56;25.00;1.00
4922;DHT22;16625;53.624;10.106;2023-06-22T08:28:23;25.10;1.00
4922;DHT22;16625;53.624;10.106;2023-06-22T08:30:50;25.10;1.00
4922;DHT22;16625;53.624;10.106;2023-06-22T08:33:16;25.30;1.00
4922;DHT22;16625;53.624;10.106;2023-06-22T08:35:43;25.50;99.90
4922;DHT22;16625;53.624;10.106;2023-06-22T08:38:10;25.40;99.90
4922;DHT22;16625;53.624;10.106;2023-06-22T08:40:40;25.60;99.90
4922;DHT22;16625;53.624;10.106;2023-06-22T08:43:07;25.80;99.90
4922;DHT22;16625;53.624;10.106;2023-06-22T08:45:34;25.90;99.90
4922;DHT22;16625;53.624;10.106;2023-06-22T08:48:01;25.80;99.90
4922;DHT22;16625;53.624;10.106;2023-06-22T08:50:28;25.60;99.90
4922;DHT22;16625;53.624;10.106;2023-06-22T08:52:55;25.60;99.90
4922;DHT22;16625;53.624;10.106;2023-06-22T08:55:22;25.80;99.90
4922;DHT22;16625;53.624;10.106;2023-06-22T08:57:50;25.80;99.90
4922;DHT22;16625;53.624;10.106;2023-06-22T09:00:18;26.00;99.90
4922;DHT22;16625;53.624;10.106;2023-06-22T09:02:46;26.00;99.90
4922;DHT22;16625;53.624;10.106;2023-06-22T09:05:13;25.60;99.90
4922;DHT22;16625;53.624;10.106;2023-06-22T09:07:41;25.80;99.90
4922;DHT22;16625;53.624;10.106;2023-06-22T09:10:09;25.90;99.90
4922;DHT22;16625;53.624;10.106;2023-06-22T09:12:35;26.00;99.90
4922;DHT22;16625;53.624;10.106;2023-06-22T09:15:05;25.90;99.90
4922;DHT22;16625;53.624;10.106;2023-06-22T09:17:33;25.80;99.90
4922;DHT22;16625;53.624;10.106;2023-06-22T09:20:01;25.70;99.90
4922;DHT22;16625;53.624;10.106;2023-06-22T09:22:31;25.80;99.90
4922;DHT22;16625;53.624;10.106;2023-06-22T09:24:58;26.00;99.90
4922;DHT22;16625;53.624;10.106;2023-06-22T09:27:26;26.10;99.90
4922;DHT22;16625;53.624;10.106;2023-06-22T09:29:53;26.40;99.90
4922;DHT22;16625;53.624;10.106;2023-06-22T09:32:21;26.50;99.90
4922;DHT22;16625;53.624;10.106;2023-06-22T09:34:48;26.00;99.90
4922;DHT22;16625;53.624;10.106;2023-06-22T09:37:15;26.20;99.90
4922;DHT22;16625;53.624;10.106;2023-06-22T09:39:42;26.20;99.90
4922;DHT22;16625;53.624;10.106;2023-06-22T09:42:09;26.00;99.90
4922;DHT22;16625;53.624;10.106;2023-06-22T09:44:37;26.30;99.90
4922;DHT22;16625;53.624;10.106;2023-06-22T09:47:04;26.40;99.90
4922;DHT22;16625;53.624;10.106;2023-06-22T09:49:33;26.50;99.90
4922;DHT22;16625;53.624;10.106;2023-06-22T09:52:00;26.50;99.90
4922;DHT22;16625;53.624;10.106;2023-06-22T09:54:27;26.50;99.90
4922;DHT22;16625;53.624;10.106;2023-06-22T09:56:53;26.50;99.90
4922;DHT22;16625;53.624;10.106;2023-06-22T09:59:20;26.70;99.90
4922;DHT22;16625;53.624;10.106;2023-06-22T10:01:47;26.90;99.90
4922;DHT22;16625;53.624;10.106;2023-06-22T10:04:14;26.90;99.90
4922;DHT22;16625;53.624;10.106;2023-06-22T10:06:42;27.10;99.90
4922;DHT22;16625;53.624;10.106;2023-06-22T10:09:09;27.40;99.90
4922;DHT22;16625;53.624;10.106;2023-06-22T10:11:36;27.30;99.90
4922;DHT22;16625;53.624;10.106;2023-06-22T10:14:03;27.20;99.90
4922;DHT22;16625;53.624;10.106;2023-06-22T10:16:31;27.10;99.90
4922;DHT22;16625;53.624;10.106;2023-06-22T10:18:58;27.10;99.90
4922;DHT22;16625;53.624;10.106;2023-06-22T10:21:25;27.10;99.90
4922;DHT22;16625;53.624;10.106;2023-06-22T10:23:54;27.00;99.90
4922;DHT22;16625;53.624;10.106;2023-06-22T10:26:21;27.00;99.90
4922;DHT22;16625;53.624;10.106;2023-06-22T10:28:47;27.10;99.90
4922;DHT22;16625;53.624;10.106;2023-06-22T10:31:14;27.40;99.90
4922;DHT22;16625;53.624;10.106;2023-06-22T10:33:42;27.80;99.90
4922;DHT22;16625;53.624;10.106;2023-06-22T10:36:10;27.80;99.90
4922;DHT22;16625;53.624;10.106;2023-06-22T10:38:36;28.00;99.90
4922;DHT22;16625;53.624;10.106;2023-06-22T10:41:05;28.10;99.90
4922;DHT22;16625;53.624;10.106;2023-06-22T10:43:32;28.20;99.90
4922;DHT22;16625;53.624;10.106;2023-06-22T10:45:59;28.50;99.90
4922;DHT22;16625;53.624;10.106;2023-06-22T10:48:26;28.40;99.90
4922;DHT22;16625;53.624;10.106;2023-06-22T10:50:53;28.10;99.90
4922;DHT22;16625;53.624;10.106;2023-06-22T10:53:20;28.30;99.90
4922;DHT22;16625;53.624;10.106;2023-06-22T10:55:47;28.60;99.90
4922;DHT22;16625;53.624;10.106;2023-06-22T10:58:17;28.50;99.90
4922;DHT22;16625;53.624;10.106;2023-06-22T11:00:44;28.60;99.90
4922;DHT22;16625;53.624;10.106;2023-06-22T11:03:11;28.60;99.90
4922;DHT22;16625;53.624;10.106;2023-06-22T11:05:39;28.70;99.90
4922;DHT22;16625;53.624;10.106;2023-06-22T11:08:07;28.90;99.90
4922;DHT22;16625;53.624;10.106;2023-06-22T11:10:34;28.90;99.90
4922;DHT22;16625;53.624;10.106;2023-06-22T11:13:01;28.80;99.90
4922;DHT22;16625;53.624;10.106;2023-06-22T11:15:31;28.90;99.90
4922;DHT22;16625;53.624;10.106;2023-06-22T11:17:58;28.90;99.90
4922;DHT22;16625;53.624;10.106;2023-06-22T11:20:24;29.10;99.90
4922;DHT22;16625;53.624;10.106;2023-06-22T11:22:51;29.00;99.90
4922;DHT22;16625;53.624;10.106;2023-06-22T11:25:18;28.90;99.90
4922;DHT22;16625;53.624;10.106;2023-06-22T11:27:45;29.00;99.90
4922;DHT22;16625;53.624;10.106;2023-06-22T11:30:12;29.10;99.90
4922;DHT22;16625;53.624;10.106;2023-06-22T11:32:41;29.00;99.90
4922;DHT22;16625;53.624;10.106;2023-06-22T11:35:08;28.90;99.90
4922;DHT22;16625;53.624;10.106;2023-06-22T11:37:35;28.90;99.90
4922;DHT22;16625;53.624;10.106;2023-06-22T11:40:03;29.00;99.90
4922;DHT22;16625;53.624;10.106;2023-06-22T11:42:34;28.90;99.90
4922;DHT22;16625;53.624;10.106;2023-06-22T11:45:01;28.50;99.90
4922;DHT22;16625;53.624;10.106;2023-06-22T11:47:30;28.40;99.90
4922;DHT22;16625;53.624;10.106;2023-06-22T11:49:59;28.30;99.90
4922;DHT22;16625;53.624;10.106;2023-06-22T11:52:25;28.40;99.90
4922;DHT22;16625;53.624;10.106;2023-06-22T11:54:53;28.50;99.90
4922;DHT22;16625;53.624;10.106;2023-06-22T11:57:20;28.60;99.90
4922;DHT22;16625;53.624;10.106;2023-06-22T11:59:46;28.80;99.90
4922;DHT22;16625;53.624;10.106;2023-06-22T12:02:13;28.90;99.90
4922;DHT22;16625;53.624;10.106;2023-06-22T12:04:40;29.00;99.90
4922;DHT22;16625;53.624;10.106;2023-06-22T12:07:09;28.50;99.90
4922;DHT22;16625;53.624;10.106;2023-06-22T12:09:35;28.40;99.90
4922;DHT22;16625;53.624;10.106;2023-06-22T12:12:03;28.40;99.90
4922;DHT22;16625;53.624;10.106;2023-06-22T12:14:30;28.30;99.90
4922;DHT22;16625;53.624;10.106;2023-06-22T12:16:57;28.50;99.90
4922;DHT22;16625;53.624;10.106;2023-06-22T12:19:24;28.70;99.90
4922;DHT22;16625;53.624;10.106;2023-06-22T12:21:51;28.70;99.90
4922;DHT22;16625;53.624;10.106;2023-06-22T12:24:19;28.50;99.90
4922;DHT22;16625;53.624;10.106;2023-06-22T12:26:46;28.50;99.90
4922;DHT22;16625;53.624;10.106;2023-06-22T12:29:13;28.20;99.90
4922;DHT22;16625;53.624;10.106;2023-06-22T12:31:40;28.40;99.90
4922;DHT22;16625;53.624;10.106;2023-06-22T12:34:07;28.60;99.90
4922;DHT22;16625;53.624;10.106;2023-06-22T12:36:34;28.60;99.90
4922;DHT22;16625;53.624;10.106;2023-06-22T12:39:01;28.60;99.90
4922;DHT22;16625;53.624;10.106;2023-06-22T12:41:29;28.70;99.90
4922;DHT22;16625;53.624;10.106;2023-06-22T12:43:56;29.00;99.90
4922;DHT22;16625;53.624;10.106;2023-06-22T12:46:23;29.20;99.90
4922;DHT22;16625;53.624;10.106;2023-06-22T12:48:50;29.30;99.90
4922;DHT22;16625;53.624;10.106;2023-06-22T12:51:21;29.30;99.90
4922;DHT22;16625;53.624;10.106;2023-06-22T12:53:49;29.30;99.90
4922;DHT22;16625;53.624;10.106;2023-06-22T12:56:16;29.00;99.90
4922;DHT22;16625;53.624;10.106;2023-06-22T12:58:44;29.10;99.90
4922;DHT22;16625;53.624;10.106;2023-06-22T13:01:11;29.30;99.90
4922;DHT22;16625;53.624;10.106;2023-06-22T13:03:38;29.40;99.90
4922;DHT22;16625;53.624;10.106;2023-06-22T13:06:05;29.30;99.90
4922;DHT22;16625;53.624;10.106;2023-06-22T13:08:32;29.10;99.90
4922;DHT22;16625;53.624;10.106;2023-06-22T13:10:59;29.00;99.90
4922;DHT22;16625;53.624;10.106;2023-06-22T13:13:26;29.00;99.90
4922;DHT22;16625;53.624;10.106;2023-06-22T13:15:55;29.20;99.90
4922;DHT22;16625;53.624;10.106;2023-06-22T13:18:22;29.40;99.90
4922;DHT22;16625;53.624;10.106;2023-06-22T13:20:49;29.60;99.90
4922;DHT22;16625;53.624;10.106;2023-06-22T13:23:16;29.40;99.90
4922;DHT22;16625;53.624;10.106;2023-06-22T13:25:43;29.20;99.90
4922;DHT22;16625;53.624;10.106;2023-06-22T13:28:09;28.90;99.90
4922;DHT22;16625;53.624;10.106;2023-06-22T13:30:39;29.10;99.90
4922;DHT22;16625;53.624;10.106;2023-06-22T13:33:08;29.40;99.90
4922;DHT22;16625;53.624;10.106;2023-06-22T13:35:35;29.50;99.90
4922;DHT22;16625;53.624;10.106;2023-06-22T13:38:03;29.70;99.90
4922;DHT22;16625;53.624;10.106;2023-06-22T13:40:30;29.90;99.90
4922;DHT22;16625;53.624;10.106;2023-06-22T13:42:57;30.10;99.90
4922;DHT22;16625;53.624;10.106;2023-06-22T13:45:24;30.00;99.90
4922;DHT22;16625;53.624;10.106;2023-06-22T13:47:51;29.90;99.90
4922;DHT22;16625;53.624;10.106;2023-06-22T13:50:19;29.90;99.90
4922;DHT22;16625;53.624;10.106;2023-06-22T13:52:46;29.60;99.90
4922;DHT22;16625;53.624;10.106;2023-06-22T13:55:13;29.60;99.90
4922;DHT22;16625;53.624;10.106;2023-06-22T13:57:41;29.30;99.90
4922;DHT22;16625;53.624;10.106;2023-06-22T14:00:08;29.30;99.90
4922;DHT22;16625;53.624;10.106;2023-06-22T14:02:36;29.20;99.90
4922;DHT22;16625;53.624;10.106;2023-06-22T14:05:03;28.80;99.90
4922;DHT22;16625;53.624;10.106;2023-06-22T14:07:32;28.70;99.90
4922;DHT22;16625;53.624;10.106;2023-06-22T14:09:59;29.00;99.90
4922;DHT22;16625;53.624;10.106;2023-06-22T14:12:26;29.30;99.90
4922;DHT22;16625;53.624;10.106;2023-06-22T14:14:53;29.50;99.90
4922;DHT22;16625;53.624;10.106;2023-06-22T14:17:20;29.50;99.90
4922;DHT22;16625;53.624;10.106;2023-06-22T14:19:51;29.70;99.90
4922;DHT22;16625;53.624;10.106;2023-06-22T14:22:18;29.70;99.90
4922;DHT22;16625;53.624;10.106;2023-06-22T14:24:47;29.60;99.90
4922;DHT22;16625;53.624;10.106;2023-06-22T14:27:15;29.60;99.90
4922;DHT22;16625;53.624;10.106;2023-06-22T14:29:42;29.50;99.90
4922;DHT22;16625;53.624;10.106;2023-06-22T14:32:09;29.40;99.90
4922;DHT22;16625;53.624;10.106;2023-06-22T14:34:36;29.40;99.90
4922;DHT22;16625;53.624;10.106;2023-06-22T14:37:05;29.00;99.90
4922;DHT22;16625;53.624;10.106;2023-06-22T14:39:33;28.80;99.90
4922;DHT22;16625;53.624;10.106;2023-06-22T14:42:01;28.30;99.90
4922;DHT22;16625;53.624;10.106;2023-06-22T14:44:29;28.60;99.90
4922;DHT22;16625;53.624;10.106;2023-06-22T14:46:56;28.60;99.90
4922;DHT22;16625;53.624;10.106;2023-06-22T14:49:23;28.60;99.90
4922;DHT22;16625;53.624;10.106;2023-06-22T14:51:50;28.30;99.90
4922;DHT22;16625;53.624;10.106;2023-06-22T14:54:17;27.90;99.90
4922;DHT22;16625;53.624;10.106;2023-06-22T14:56:44;27.80;99.90
4922;DHT22;16625;53.624;10.106;2023-06-22T14:59:13;27.60;99.90
4922;DHT22;16625;53.624;10.106;2023-06-22T15:01:40;27.40;99.90
4922;DHT22;16625;53.624;10.106;2023-06-22T15:04:07;27.10;99.90
4922;DHT22;16625;53.624;10.106;2023-06-22T15:06:34;26.80;99.90
4922;DHT22;16625;53.624;10.106;2023-06-22T15:09:01;26.70;99.90
4922;DHT22;16625;53.624;10.106;2023-06-22T15:11:28;26.60;99.90
4922;DHT22;16625;53.624;10.106;2023-06-22T15:13:58;26.60;99.90
4922;DHT22;16625;53.624;10.106;2023-06-22T15:16:27;26.50;99.90
4922;DHT22;16625;53.624;10.106;2023-06-22T15:18:54;26.50;99.90
4922;DHT22;16625;53.624;10.106;2023-06-22T15:21:21;26.50;99.90
4922;DHT22;16625;53.624;10.106;2023-06-22T15:23:48;26.40;99.90
4922;DHT22;16625;53.624;10.106;2023-06-22T15:26:15;26.40;99.90
4922;DHT22;16625;53.624;10.106;2023-06-22T15:28:43;26.40;99.90
4922;DHT22;16625;53.624;10.106;2023-06-22T15:31:10;26.40;99.90
4922;DHT22;16625;53.624;10.106;2023-06-22T15:33:39;26.40;99.90
4922;DHT22;16625;53.624;10.106;2023-06-22T15:36:06;26.50;99.90
4922;DHT22;16625;53.624;10.106;2023-06-22T15:38:34;26.40;99.90
4922;DHT22;16625;53.624;10.106;2023-06-22T15:41:00;26.10;99.90
4922;DHT22;16625;53.624;10.106;2023-06-22T15:43:27;26.00;99.90
4922;DHT22;16625;53.624;10.106;2023-06-22T15:45:54;25.90;99.90